sensor_id;sensor_type;location;lat;lon;timestamp;P1;durP1;ratioP1;P2;durP2;ratioP2
9536;SDS011;4807;48.024;11.726;2022-07-29T00:01:51;0.90;;;0.90;;
9536;SDS011;4807;48.024;11.726;2022-07-29T00:04:59;0.77;;;0.77;;
9536;SDS011;4807;48.024;11.726;2022-07-29T00:08:10;0.67;;;0.67;;
9536;SDS011;4807;48.024;11.726;2022-07-29T00:11:18;0.57;;;0.50;;
9536;SDS011;4807;48.024;11.726;2022-07-29T00:14:27;1.23;;;0.50;;
9536;SDS011;4807;48.024;11.726;2022-07-29T00:17:36;0.60;;;0.60;;
9536;SDS011;4807;48.024;11.726;2022-07-29T00:20:44;0.50;;;0.50;;
9536;SDS011;4807;48.024;11.726;2022-07-29T00:23:54;0.60;;;0.60;;
9536;SDS011;4807;48.024;11.726;2022-07-29T00:27:02;0.90;;;0.40;;
9536;SDS011;4807;48.024;11.726;2022-07-29T00:30:11;0.67;;;0.50;;
9536;SDS011;4807;48.024;11.726;2022-07-29T00:33:20;1.10;;;0.60;;
9536;SDS011;4807;48.024;11.726;2022-07-29T00:36:29;1.77;;;0.60;;
9536;SDS011;4807;48.024;11.726;2022-07-29T00:39:38;1.43;;;0.67;;
9536;SDS011;4807;48.024;11.726;2022-07-29T00:42:47;0.43;;;0.43;;
9536;SDS011;4807;48.024;11.726;2022-07-29T00:45:58;0.53;;;0.37;;
9536;SDS011;4807;48.024;11.726;2022-07-29T00:49:09;1.07;;;0.40;;
9536;SDS011;4807;48.024;11.726;2022-07-29T00:52:17;0.50;;;0.50;;
9536;SDS011;4807;48.024;11.726;2022-07-29T00:55:27;1.23;;;0.60;;
9536;SDS011;4807;48.024;11.726;2022-07-29T00:58:37;0.30;;;0.30;;
9536;SDS011;4807;48.024;11.726;2022-07-29T01:01:47;0.77;;;0.40;;
9536;SDS011;4807;48.024;11.726;2022-07-29T01:04:56;0.40;;;0.40;;
9536;SDS011;4807;48.024;11.726;2022-07-29T01:08:05;0.50;;;0.50;;
9536;SDS011;4807;48.024;11.726;2022-07-29T01:11:16;0.40;;;0.40;;
9536;SDS011;4807;48.024;11.726;2022-07-29T01:14:26;0.90;;;0.50;;
9536;SDS011;4807;48.024;11.726;2022-07-29T01:17:36;0.40;;;0.40;;
9536;SDS011;4807;48.024;11.726;2022-07-29T01:21:05;0.20;;;0.20;;
9536;SDS011;4807;48.024;11.726;2022-07-29T01:24:39;2.07;;;0.40;;
9536;SDS011;4807;48.024;11.726;2022-07-29T01:28:20;0.67;;;0.50;;
9536;SDS011;4807;48.024;11.726;2022-07-29T01:32:15;0.50;;;0.50;;
9536;SDS011;4807;48.024;11.726;2022-07-29T01:35:35;1.13;;;0.60;;
9536;SDS011;4807;48.024;11.726;2022-07-29T01:38:50;0.50;;;0.50;;
9536;SDS011;4807;48.024;11.726;2022-07-29T01:42:10;0.60;;;0.40;;
9536;SDS011;4807;48.024;11.726;2022-07-29T01:45:30;2.10;;;0.50;;
9536;SDS011;4807;48.024;11.726;2022-07-29T01:48:52;0.50;;;0.50;;
9536;SDS011;4807;48.024;11.726;2022-07-29T01:52:08;0.60;;;0.60;;
9536;SDS011;4807;48.024;11.726;2022-07-29T01:55:27;0.50;;;0.50;;
9536;SDS011;4807;48.024;11.726;2022-07-29T01:58:40;0.50;;;0.50;;
9536;SDS011;4807;48.024;11.726;2022-07-29T02:01:52;0.40;;;0.40;;
9536;SDS011;4807;48.024;11.726;2022-07-29T02:05:06;1.23;;;0.50;;
9536;SDS011;4807;48.024;11.726;2022-07-29T02:08:19;0.40;;;0.40;;
9536;SDS011;4807;48.024;11.726;2022-07-29T02:11:31;0.60;;;0.40;;
9536;SDS011;4807;48.024;11.726;2022-07-29T02:14:43;1.23;;;0.60;;
9536;SDS011;4807;48.024;11.726;2022-07-29T02:17:57;0.53;;;0.53;;
9536;SDS011;4807;48.024;11.726;2022-07-29T02:21:10;0.67;;;0.50;;
9536;SDS011;4807;48.024;11.726;2022-07-29T02:24:22;0.83;;;0.60;;
9536;SDS011;4807;48.024;11.726;2022-07-29T02:27:32;0.60;;;0.50;;
9536;SDS011;4807;48.024;11.726;2022-07-29T02:30:42;0.47;;;0.47;;
9536;SDS011;4807;48.024;11.726;2022-07-29T02:33:53;0.90;;;0.77;;
9536;SDS011;4807;48.024;11.726;2022-07-29T02:37:08;0.97;;;0.60;;
9536;SDS011;4807;48.024;11.726;2022-07-29T02:40:18;0.70;;;0.70;;
9536;SDS011;4807;48.024;11.726;2022-07-29T02:43:26;0.50;;;0.50;;
9536;SDS011;4807;48.024;11.726;2022-07-29T02:46:41;0.83;;;0.60;;
9536;SDS011;4807;48.024;11.726;2022-07-29T02:49:57;0.70;;;0.70;;
9536;SDS011;4807;48.024;11.726;2022-07-29T02:53:16;1.83;;;0.83;;
9536;SDS011;4807;48.024;11.726;2022-07-29T02:56:28;0.70;;;0.70;;
9536;SDS011;4807;48.024;11.726;2022-07-29T02:59:41;0.60;;;0.60;;
9536;SDS011;4807;48.024;11.726;2022-07-29T03:02:56;1.43;;;0.70;;
9536;SDS011;4807;48.024;11.726;2022-07-29T03:06:10;0.87;;;0.80;;
9536;SDS011;4807;48.024;11.726;2022-07-29T03:09:43;0.80;;;0.77;;
9536;SDS011;4807;48.024;11.726;2022-07-29T03:12:53;0.70;;;0.70;;
9536;SDS011;4807;48.024;11.726;2022-07-29T03:16:04;0.80;;;0.80;;
9536;SDS011;4807;48.024;11.726;2022-07-29T03:19:13;0.63;;;0.63;;
9536;SDS011;4807;48.024;11.726;2022-07-29T03:22:23;1.13;;;0.70;;
9536;SDS011;4807;48.024;11.726;2022-07-29T03:25:34;0.77;;;0.77;;
9536;SDS011;4807;48.024;11.726;2022-07-29T03:28:43;0.87;;;0.83;;
9536;SDS011;4807;48.024;11.726;2022-07-29T03:31:52;1.10;;;1.00;;
9536;SDS011;4807;48.024;11.726;2022-07-29T03:35:01;1160.00;;;597.27;;
9536;SDS011;4807;48.024;11.726;2022-07-29T03:38:11;1999.90;;;999.90;;
9536;SDS011;4807;48.024;11.726;2022-07-29T03:41:20;1999.90;;;999.90;;
9536;SDS011;4807;48.024;11.726;2022-07-29T03:44:32;1999.90;;;999.90;;
9536;SDS011;4807;48.024;11.726;2022-07-29T03:47:48;1999.90;;;999.90;;
9536;SDS011;4807;48.024;11.726;2022-07-29T03:51:06;1999.90;;;999.90;;
9536;SDS011;4807;48.024;11.726;2022-07-29T03:54:14;1999.90;;;999.90;;
9536;SDS011;4807;48.024;11.726;2022-07-29T03:57:27;1999.90;;;999.90;;
9536;SDS011;4807;48.024;11.726;2022-07-29T04:00:38;1999.90;;;999.90;;
9536;SDS011;4807;48.024;11.726;2022-07-29T04:03:48;1999.90;;;999.90;;
9536;SDS011;4807;48.024;11.726;2022-07-29T04:06:56;1999.90;;;999.90;;
9536;SDS011;4807;48.024;11.726;2022-07-29T04:10:05;1999.90;;;999.90;;
9536;SDS011;4807;48.024;11.726;2022-07-29T04:13:16;1999.90;;;999.90;;
9536;SDS011;4807;48.024;11.726;2022-07-29T04:16:25;1999.90;;;999.90;;
9536;SDS011;4807;48.024;11.726;2022-07-29T04:19:34;1999.90;;;999.90;;
9536;SDS011;4807;48.024;11.726;2022-07-29T04:22:42;1999.90;;;999.90;;
9536;SDS011;4807;48.024;11.726;2022-07-29T04:25:50;1999.90;;;999.90;;
9536;SDS011;4807;48.024;11.726;2022-07-29T04:29:00;1999.90;;;999.90;;
9536;SDS011;4807;48.024;11.726;2022-07-29T04:32:08;1999.90;;;999.90;;
9536;SDS011;4807;48.024;11.726;2022-07-29T04:35:18;1999.90;;;999.90;;
9536;SDS011;4807;48.024;11.726;2022-07-29T04:38:27;1999.90;;;999.90;;
9536;SDS011;4807;48.024;11.726;2022-07-29T04:41:35;1999.90;;;999.90;;
9536;SDS011;4807;48.024;11.726;2022-07-29T04:44:45;1999.90;;;999.90;;
9536;SDS011;4807;48.024;11.726;2022-07-29T04:48:06;1999.90;;;999.90;;
9536;SDS011;4807;48.024;11.726;2022-07-29T04:51:15;1999.90;;;999.90;;
9536;SDS011;4807;48.024;11.726;2022-07-29T04:54:23;1999.90;;;999.90;;
9536;SDS011;4807;48.024;11.726;2022-07-29T04:57:32;1999.90;;;999.90;;
9536;SDS011;4807;48.024;11.726;2022-07-29T05:00:42;1999.90;;;999.90;;
9536;SDS011;4807;48.024;11.726;2022-07-29T05:03:51;1999.90;;;999.90;;
9536;SDS011;4807;48.024;11.726;2022-07-29T05:07:05;1999.90;;;999.90;;
9536;SDS011;4807;48.024;11.726;2022-07-29T05:10:13;1999.90;;;999.90;;
9536;SDS011;4807;48.024;11.726;2022-07-29T05:13:22;1999.90;;;999.90;;
9536;SDS011;4807;48.024;11.726;2022-07-29T05:16:32;1999.90;;;999.90;;
9536;SDS011;4807;48.024;11.726;2022-07-29T05:19:40;1999.90;;;999.90;;
9536;SDS011;4807;48.024;11.726;2022-07-29T05:22:49;1999.90;;;999.90;;
9536;SDS011;4807;48.024;11.726;2022-07-29T05:25:57;1999.90;;;999.90;;
9536;SDS011;4807;48.024;11.726;2022-07-29T05:29:06;1999.90;;;999.90;;
9536;SDS011;4807;48.024;11.726;2022-07-29T05:32:36;1999.90;;;999.90;;
9536;SDS011;4807;48.024;11.726;2022-07-29T05:35:44;1999.90;;;999.90;;
9536;SDS011;4807;48.024;11.726;2022-07-29T05:38:53;1999.90;;;999.90;;
9536;SDS011;4807;48.024;11.726;2022-07-29T05:42:01;1999.90;;;999.90;;
9536;SDS011;4807;48.024;11.726;2022-07-29T05:45:10;1999.90;;;999.90;;
9536;SDS011;4807;48.024;11.726;2022-07-29T05:48:20;1999.90;;;999.90;;
9536;SDS011;4807;48.024;11.726;2022-07-29T05:51:28;1999.90;;;999.90;;
9536;SDS011;4807;48.024;11.726;2022-07-29T05:54:37;1999.90;;;999.90;;
9536;SDS011;4807;48.024;11.726;2022-07-29T05:57:45;1999.90;;;999.90;;
9536;SDS011;4807;48.024;11.726;2022-07-29T06:00:54;1999.90;;;999.90;;
9536;SDS011;4807;48.024;11.726;2022-07-29T06:04:06;1999.90;;;999.90;;
9536;SDS011;4807;48.024;11.726;2022-07-29T06:07:15;1999.90;;;999.90;;
9536;SDS011;4807;48.024;11.726;2022-07-29T06:10:23;1999.90;;;999.90;;
9536;SDS011;4807;48.024;11.726;2022-07-29T06:13:33;1999.90;;;999.90;;
9536;SDS011;4807;48.024;11.726;2022-07-29T06:16:41;1999.90;;;999.90;;
9536;SDS011;4807;48.024;11.726;2022-07-29T06:19:51;1999.90;;;999.90;;
9536;SDS011;4807;48.024;11.726;2022-07-29T06:23:00;1999.90;;;999.90;;
9536;SDS011;4807;48.024;11.726;2022-07-29T06:26:10;1999.90;;;999.90;;
9536;SDS011;4807;48.024;11.726;2022-07-29T06:29:19;1999.90;;;999.90;;
9536;SDS011;4807;48.024;11.726;2022-07-29T06:32:27;1999.90;;;999.90;;
9536;SDS011;4807;48.024;11.726;2022-07-29T06:35:38;1999.90;;;999.90;;
9536;SDS011;4807;48.024;11.726;2022-07-29T06:39:00;1999.90;;;999.90;;
9536;SDS011;4807;48.024;11.726;2022-07-29T06:42:09;1999.90;;;999.90;;
9536;SDS011;4807;48.024;11.726;2022-07-29T06:45:17;1999.90;;;999.90;;
9536;SDS011;4807;48.024;11.726;2022-07-29T06:48:26;1999.90;;;999.90;;
9536;SDS011;4807;48.024;11.726;2022-07-29T06:51:37;1999.90;;;999.90;;
9536;SDS011;4807;48.024;11.726;2022-07-29T06:54:45;1999.90;;;999.90;;
9536;SDS011;4807;48.024;11.726;2022-07-29T06:57:54;1999.90;;;999.90;;
9536;SDS011;4807;48.024;11.726;2022-07-29T07:01:03;1999.90;;;999.90;;
9536;SDS011;4807;48.024;11.726;2022-07-29T07:04:12;1999.90;;;999.90;;
9536;SDS011;4807;48.024;11.726;2022-07-29T07:07:23;1974.13;;;999.90;;
9536;SDS011;4807;48.024;11.726;2022-07-29T07:10:32;40.73;;;39.43;;
9536;SDS011;4807;48.024;11.726;2022-07-29T07:13:40;0.73;;;0.73;;
9536;SDS011;4807;48.024;11.726;2022-07-29T07:16:49;1.17;;;0.80;;
9536;SDS011;4807;48.024;11.726;2022-07-29T07:20:00;0.90;;;0.80;;
9536;SDS011;4807;48.024;11.726;2022-07-29T07:23:10;0.60;;;0.60;;
9536;SDS011;4807;48.024;11.726;2022-07-29T07:26:18;0.90;;;0.90;;
9536;SDS011;4807;48.024;11.726;2022-07-29T07:29:26;2.20;;;0.60;;
9536;SDS011;4807;48.024;11.726;2022-07-29T07:32:35;0.70;;;0.70;;
9536;SDS011;4807;48.024;11.726;2022-07-29T07:35:44;1.37;;;0.80;;
9536;SDS011;4807;48.024;11.726;2022-07-29T07:38:54;0.73;;;0.70;;
9536;SDS011;4807;48.024;11.726;2022-07-29T07:42:02;0.70;;;0.70;;
9536;SDS011;4807;48.024;11.726;2022-07-29T07:45:11;1.40;;;0.60;;
9536;SDS011;4807;48.024;11.726;2022-07-29T07:48:23;0.90;;;0.90;;
9536;SDS011;4807;48.024;11.726;2022-07-29T07:51:31;0.83;;;0.83;;
9536;SDS011;4807;48.024;11.726;2022-07-29T07:54:43;0.60;;;0.60;;
9536;SDS011;4807;48.024;11.726;2022-07-29T07:57:52;0.43;;;0.43;;
9536;SDS011;4807;48.024;11.726;2022-07-29T08:01:01;0.70;;;0.63;;
9536;SDS011;4807;48.024;11.726;2022-07-29T08:04:09;0.70;;;0.70;;
9536;SDS011;4807;48.024;11.726;2022-07-29T08:07:18;0.80;;;0.80;;
9536;SDS011;4807;48.024;11.726;2022-07-29T08:10:27;0.60;;;0.60;;
9536;SDS011;4807;48.024;11.726;2022-07-29T08:13:54;0.80;;;0.60;;
9536;SDS011;4807;48.024;11.726;2022-07-29T08:17:02;1.70;;;0.50;;
9536;SDS011;4807;48.024;11.726;2022-07-29T08:20:11;0.43;;;0.30;;
9536;SDS011;4807;48.024;11.726;2022-07-29T08:23:19;1.90;;;0.57;;
9536;SDS011;4807;48.024;11.726;2022-07-29T08:26:32;1.43;;;0.53;;
9536;SDS011;4807;48.024;11.726;2022-07-29T08:29:40;0.70;;;0.70;;
9536;SDS011;4807;48.024;11.726;2022-07-29T08:32:49;1.27;;;0.60;;
9536;SDS011;4807;48.024;11.726;2022-07-29T08:36:00;0.50;;;0.50;;
9536;SDS011;4807;48.024;11.726;2022-07-29T08:39:09;0.70;;;0.60;;
9536;SDS011;4807;48.024;11.726;2022-07-29T08:42:19;0.80;;;0.60;;
9536;SDS011;4807;48.024;11.726;2022-07-29T08:45:27;1.03;;;0.70;;
9536;SDS011;4807;48.024;11.726;2022-07-29T08:48:37;0.60;;;0.60;;
9536;SDS011;4807;48.024;11.726;2022-07-29T08:51:46;0.80;;;0.80;;
9536;SDS011;4807;48.024;11.726;2022-07-29T08:54:55;1.20;;;0.80;;
9536;SDS011;4807;48.024;11.726;2022-07-29T08:58:05;1.77;;;0.80;;
9536;SDS011;4807;48.024;11.726;2022-07-29T09:01:17;1.80;;;0.77;;
9536;SDS011;4807;48.024;11.726;2022-07-29T09:04:47;0.80;;;0.80;;
9536;SDS011;4807;48.024;11.726;2022-07-29T09:07:57;0.77;;;0.77;;
9536;SDS011;4807;48.024;11.726;2022-07-29T09:11:06;0.77;;;0.77;;
9536;SDS011;4807;48.024;11.726;2022-07-29T09:14:17;0.80;;;0.80;;
9536;SDS011;4807;48.024;11.726;2022-07-29T09:17:42;0.90;;;0.90;;
9536;SDS011;4807;48.024;11.726;2022-07-29T09:20:53;0.90;;;0.90;;
9536;SDS011;4807;48.024;11.726;2022-07-29T09:24:19;0.83;;;0.83;;
9536;SDS011;4807;48.024;11.726;2022-07-29T09:27:27;1.80;;;0.90;;
9536;SDS011;4807;48.024;11.726;2022-07-29T09:30:38;1.17;;;1.17;;
9536;SDS011;4807;48.024;11.726;2022-07-29T09:33:58;0.80;;;0.80;;
9536;SDS011;4807;48.024;11.726;2022-07-29T09:37:07;2.77;;;1.10;;
9536;SDS011;4807;48.024;11.726;2022-07-29T09:40:16;0.80;;;0.80;;
9536;SDS011;4807;48.024;11.726;2022-07-29T09:43:26;1.17;;;0.93;;
9536;SDS011;4807;48.024;11.726;2022-07-29T09:46:36;2.80;;;1.10;;
9536;SDS011;4807;48.024;11.726;2022-07-29T09:49:52;1.00;;;0.87;;
9536;SDS011;4807;48.024;11.726;2022-07-29T09:53:04;1.20;;;1.10;;
9536;SDS011;4807;48.024;11.726;2022-07-29T09:56:13;1.03;;;1.03;;
9536;SDS011;4807;48.024;11.726;2022-07-29T09:59:21;1.03;;;1.00;;
9536;SDS011;4807;48.024;11.726;2022-07-29T10:02:35;1.10;;;1.10;;
9536;SDS011;4807;48.024;11.726;2022-07-29T10:05:46;0.97;;;0.97;;
9536;SDS011;4807;48.024;11.726;2022-07-29T10:09:13;0.80;;;0.80;;
9536;SDS011;4807;48.024;11.726;2022-07-29T10:12:25;1.37;;;1.20;;
9536;SDS011;4807;48.024;11.726;2022-07-29T10:15:34;0.93;;;0.80;;
9536;SDS011;4807;48.024;11.726;2022-07-29T10:18:48;1.40;;;1.13;;
9536;SDS011;4807;48.024;11.726;2022-07-29T10:21:58;2.13;;;1.27;;
9536;SDS011;4807;48.024;11.726;2022-07-29T10:25:08;1.13;;;1.03;;
9536;SDS011;4807;48.024;11.726;2022-07-29T10:28:17;1.00;;;1.00;;
9536;SDS011;4807;48.024;11.726;2022-07-29T10:31:26;2.00;;;1.00;;
9536;SDS011;4807;48.024;11.726;2022-07-29T10:35:01;2.00;;;1.40;;
9536;SDS011;4807;48.024;11.726;2022-07-29T10:39:04;1.63;;;1.10;;
9536;SDS011;4807;48.024;11.726;2022-07-29T10:42:28;1.23;;;1.03;;
9536;SDS011;4807;48.024;11.726;2022-07-29T10:45:39;1.50;;;1.40;;
9536;SDS011;4807;48.024;11.726;2022-07-29T10:49:04;1.57;;;1.30;;
9536;SDS011;4807;48.024;11.726;2022-07-29T10:52:16;1.90;;;1.43;;
9536;SDS011;4807;48.024;11.726;2022-07-29T10:55:33;1.83;;;1.30;;
9536;SDS011;4807;48.024;11.726;2022-07-29T10:58:52;4.53;;;1.20;;
9536;SDS011;4807;48.024;11.726;2022-07-29T11:02:41;1.43;;;1.10;;
9536;SDS011;4807;48.024;11.726;2022-07-29T11:05:58;1.57;;;1.43;;
9536;SDS011;4807;48.024;11.726;2022-07-29T11:09:16;1.20;;;1.10;;
9536;SDS011;4807;48.024;11.726;2022-07-29T11:12:46;1.50;;;1.03;;
9536;SDS011;4807;48.024;11.726;2022-07-29T11:15:56;3.43;;;1.30;;
9536;SDS011;4807;48.024;11.726;2022-07-29T11:19:21;3.73;;;1.40;;
9536;SDS011;4807;48.024;11.726;2022-07-29T11:22:35;1.83;;;1.30;;
9536;SDS011;4807;48.024;11.726;2022-07-29T11:26:24;1.63;;;1.07;;
9536;SDS011;4807;48.024;11.726;2022-07-29T11:29:39;1.93;;;1.20;;
9536;SDS011;4807;48.024;11.726;2022-07-29T11:32:56;1.93;;;1.20;;
9536;SDS011;4807;48.024;11.726;2022-07-29T11:36:09;3.97;;;1.50;;
9536;SDS011;4807;48.024;11.726;2022-07-29T11:39:25;1.73;;;1.23;;
9536;SDS011;4807;48.024;11.726;2022-07-29T11:42:45;1.43;;;1.33;;
9536;SDS011;4807;48.024;11.726;2022-07-29T11:45:57;1.50;;;1.20;;
9536;SDS011;4807;48.024;11.726;2022-07-29T11:49:07;1.37;;;1.20;;
9536;SDS011;4807;48.024;11.726;2022-07-29T11:52:19;1.53;;;1.27;;
9536;SDS011;4807;48.024;11.726;2022-07-29T11:55:28;2.00;;;1.00;;
9536;SDS011;4807;48.024;11.726;2022-07-29T11:59:03;1.13;;;1.03;;
9536;SDS011;4807;48.024;11.726;2022-07-29T12:02:14;4.87;;;1.37;;
9536;SDS011;4807;48.024;11.726;2022-07-29T12:05:43;2.57;;;1.00;;
9536;SDS011;4807;48.024;11.726;2022-07-29T12:08:53;1.30;;;1.17;;
9536;SDS011;4807;48.024;11.726;2022-07-29T12:12:02;1.37;;;1.00;;
9536;SDS011;4807;48.024;11.726;2022-07-29T12:15:16;1.10;;;1.10;;
9536;SDS011;4807;48.024;11.726;2022-07-29T12:18:27;1.40;;;1.30;;
9536;SDS011;4807;48.024;11.726;2022-07-29T12:21:43;1.20;;;1.10;;
9536;SDS011;4807;48.024;11.726;2022-07-29T12:25:08;1.60;;;1.10;;
9536;SDS011;4807;48.024;11.726;2022-07-29T12:28:39;1.23;;;1.13;;
9536;SDS011;4807;48.024;11.726;2022-07-29T12:31:53;1.33;;;1.23;;
9536;SDS011;4807;48.024;11.726;2022-07-29T12:35:04;1.40;;;1.23;;
9536;SDS011;4807;48.024;11.726;2022-07-29T12:38:15;1.17;;;1.10;;
9536;SDS011;4807;48.024;11.726;2022-07-29T12:41:25;3.67;;;0.90;;
9536;SDS011;4807;48.024;11.726;2022-07-29T12:44:46;1.70;;;1.00;;
9536;SDS011;4807;48.024;11.726;2022-07-29T12:47:57;1.47;;;1.20;;
9536;SDS011;4807;48.024;11.726;2022-07-29T12:51:06;1.17;;;1.07;;
9536;SDS011;4807;48.024;11.726;2022-07-29T12:54:16;3.43;;;1.00;;
9536;SDS011;4807;48.024;11.726;2022-07-29T12:57:24;7.00;;;1.30;;
9536;SDS011;4807;48.024;11.726;2022-07-29T13:00:34;1.30;;;1.07;;
9536;SDS011;4807;48.024;11.726;2022-07-29T13:03:44;2.27;;;1.07;;
9536;SDS011;4807;48.024;11.726;2022-07-29T13:07:03;1.33;;;0.80;;
9536;SDS011;4807;48.024;11.726;2022-07-29T13:10:15;0.70;;;0.70;;
9536;SDS011;4807;48.024;11.726;2022-07-29T13:13:29;0.70;;;0.70;;
9536;SDS011;4807;48.024;11.726;2022-07-29T13:20:14;1.20;;;0.60;;
9536;SDS011;4807;48.024;11.726;2022-07-29T13:23:22;1.07;;;0.77;;
9536;SDS011;4807;48.024;11.726;2022-07-29T13:26:31;1.00;;;0.70;;
9536;SDS011;4807;48.024;11.726;2022-07-29T13:29:39;2.00;;;1.00;;
9536;SDS011;4807;48.024;11.726;2022-07-29T13:32:48;1.03;;;0.93;;
9536;SDS011;4807;48.024;11.726;2022-07-29T13:35:59;1.37;;;1.00;;
9536;SDS011;4807;48.024;11.726;2022-07-29T13:39:07;3.53;;;1.13;;
9536;SDS011;4807;48.024;11.726;2022-07-29T13:42:17;1.20;;;1.07;;
9536;SDS011;4807;48.024;11.726;2022-07-29T13:45:26;1.10;;;1.00;;
9536;SDS011;4807;48.024;11.726;2022-07-29T13:48:34;1.60;;;1.00;;
9536;SDS011;4807;48.024;11.726;2022-07-29T13:51:44;1.13;;;0.90;;
9536;SDS011;4807;48.024;11.726;2022-07-29T13:54:53;1.13;;;0.87;;
9536;SDS011;4807;48.024;11.726;2022-07-29T13:58:01;1.00;;;1.00;;
9536;SDS011;4807;48.024;11.726;2022-07-29T14:01:10;0.87;;;0.87;;
9536;SDS011;4807;48.024;11.726;2022-07-29T14:04:18;4.43;;;1.13;;
9536;SDS011;4807;48.024;11.726;2022-07-29T14:07:29;1.63;;;1.07;;
9536;SDS011;4807;48.024;11.726;2022-07-29T14:10:38;2.40;;;0.93;;
9536;SDS011;4807;48.024;11.726;2022-07-29T14:13:47;2.03;;;1.20;;
9536;SDS011;4807;48.024;11.726;2022-07-29T14:16:55;1.77;;;0.90;;
9536;SDS011;4807;48.024;11.726;2022-07-29T14:20:04;0.87;;;0.87;;
9536;SDS011;4807;48.024;11.726;2022-07-29T14:23:15;2.20;;;0.97;;
9536;SDS011;4807;48.024;11.726;2022-07-29T14:26:25;1.37;;;1.00;;
9536;SDS011;4807;48.024;11.726;2022-07-29T14:29:34;2.27;;;1.10;;
9536;SDS011;4807;48.024;11.726;2022-07-29T14:32:44;0.90;;;0.90;;
9536;SDS011;4807;48.024;11.726;2022-07-29T14:35:52;3.30;;;1.13;;
9536;SDS011;4807;48.024;11.726;2022-07-29T14:39:09;0.83;;;0.83;;
9536;SDS011;4807;48.024;11.726;2022-07-29T14:42:18;0.90;;;0.90;;
9536;SDS011;4807;48.024;11.726;2022-07-29T14:45:26;1.80;;;0.77;;
9536;SDS011;4807;48.024;11.726;2022-07-29T14:48:35;1.67;;;0.80;;
9536;SDS011;4807;48.024;11.726;2022-07-29T14:51:44;1.40;;;0.80;;
9536;SDS011;4807;48.024;11.726;2022-07-29T14:54:54;0.93;;;0.93;;
9536;SDS011;4807;48.024;11.726;2022-07-29T14:58:02;1.43;;;0.87;;
9536;SDS011;4807;48.024;11.726;2022-07-29T15:01:17;1.47;;;1.07;;
9536;SDS011;4807;48.024;11.726;2022-07-29T15:04:26;3.03;;;0.83;;
9536;SDS011;4807;48.024;11.726;2022-07-29T15:07:34;1.27;;;1.17;;
9536;SDS011;4807;48.024;11.726;2022-07-29T15:10:44;0.83;;;0.83;;
9536;SDS011;4807;48.024;11.726;2022-07-29T15:13:53;2.37;;;1.20;;
9536;SDS011;4807;48.024;11.726;2022-07-29T15:17:02;1.10;;;1.00;;
9536;SDS011;4807;48.024;11.726;2022-07-29T15:20:11;1.10;;;1.00;;
9536;SDS011;4807;48.024;11.726;2022-07-29T15:23:19;1.20;;;1.10;;
9536;SDS011;4807;48.024;11.726;2022-07-29T15:26:29;2.90;;;1.17;;
9536;SDS011;4807;48.024;11.726;2022-07-29T15:29:38;4.90;;;1.20;;
9536;SDS011;4807;48.024;11.726;2022-07-29T15:32:46;2.87;;;1.10;;
9536;SDS011;4807;48.024;11.726;2022-07-29T15:36:01;1.37;;;1.27;;
9536;SDS011;4807;48.024;11.726;2022-07-29T15:39:10;1.00;;;1.00;;
9536;SDS011;4807;48.024;11.726;2022-07-29T15:42:20;2.23;;;1.20;;
9536;SDS011;4807;48.024;11.726;2022-07-29T15:45:28;1.00;;;1.00;;
9536;SDS011;4807;48.024;11.726;2022-07-29T15:48:46;3.50;;;1.20;;
9536;SDS011;4807;48.024;11.726;2022-07-29T15:51:55;3.50;;;1.20;;
9536;SDS011;4807;48.024;11.726;2022-07-29T15:55:05;2.00;;;1.00;;
9536;SDS011;4807;48.024;11.726;2022-07-29T15:58:17;1.20;;;1.10;;
9536;SDS011;4807;48.024;11.726;2022-07-29T16:01:26;30.27;;;17.63;;
9536;SDS011;4807;48.024;11.726;2022-07-29T16:04:35;3.03;;;1.77;;
9536;SDS011;4807;48.024;11.726;2022-07-29T16:07:44;0.90;;;0.90;;
9536;SDS011;4807;48.024;11.726;2022-07-29T16:10:52;1.93;;;1.20;;
9536;SDS011;4807;48.024;11.726;2022-07-29T16:14:02;1.20;;;1.10;;
9536;SDS011;4807;48.024;11.726;2022-07-29T16:17:14;12.03;;;6.40;;
9536;SDS011;4807;48.024;11.726;2022-07-29T16:20:23;1.57;;;1.10;;
9536;SDS011;4807;48.024;11.726;2022-07-29T16:23:32;1.90;;;1.30;;
9536;SDS011;4807;48.024;11.726;2022-07-29T16:26:41;1.03;;;0.90;;
9536;SDS011;4807;48.024;11.726;2022-07-29T16:29:51;1.27;;;0.90;;
9536;SDS011;4807;48.024;11.726;2022-07-29T16:32:59;4.73;;;1.40;;
9536;SDS011;4807;48.024;11.726;2022-07-29T16:36:13;2.73;;;1.20;;
9536;SDS011;4807;48.024;11.726;2022-07-29T16:39:24;3.27;;;1.50;;
9536;SDS011;4807;48.024;11.726;2022-07-29T16:42:32;2.23;;;1.40;;
9536;SDS011;4807;48.024;11.726;2022-07-29T16:45:53;1.40;;;1.30;;
9536;SDS011;4807;48.024;11.726;2022-07-29T16:49:02;5.50;;;1.57;;
9536;SDS011;4807;48.024;11.726;2022-07-29T16:52:12;5.70;;;1.60;;
9536;SDS011;4807;48.024;11.726;2022-07-29T16:55:21;1.60;;;1.50;;
9536;SDS011;4807;48.024;11.726;2022-07-29T16:58:30;1.47;;;1.37;;
9536;SDS011;4807;48.024;11.726;2022-07-29T17:01:41;1.30;;;1.30;;
9536;SDS011;4807;48.024;11.726;2022-07-29T17:04:49;1.50;;;1.37;;
9536;SDS011;4807;48.024;11.726;2022-07-29T17:07:58;1.30;;;1.20;;
9536;SDS011;4807;48.024;11.726;2022-07-29T17:11:06;1.90;;;1.30;;
9536;SDS011;4807;48.024;11.726;2022-07-29T17:14:16;1.53;;;1.43;;
9536;SDS011;4807;48.024;11.726;2022-07-29T17:17:31;1.40;;;1.30;;
9536;SDS011;4807;48.024;11.726;2022-07-29T17:20:59;2.83;;;1.30;;
9536;SDS011;4807;48.024;11.726;2022-07-29T17:24:08;2.97;;;1.30;;
9536;SDS011;4807;48.024;11.726;2022-07-29T17:27:16;1.50;;;1.40;;
9536;SDS011;4807;48.024;11.726;2022-07-29T17:30:25;1.60;;;1.20;;
9536;SDS011;4807;48.024;11.726;2022-07-29T17:33:35;2.70;;;1.20;;
9536;SDS011;4807;48.024;11.726;2022-07-29T17:36:44;1.33;;;1.13;;
9536;SDS011;4807;48.024;11.726;2022-07-29T17:39:52;3.13;;;1.23;;
9536;SDS011;4807;48.024;11.726;2022-07-29T17:43:05;2.30;;;1.13;;
9536;SDS011;4807;48.024;11.726;2022-07-29T17:46:15;1.80;;;1.30;;
9536;SDS011;4807;48.024;11.726;2022-07-29T17:49:26;1.47;;;1.30;;
9536;SDS011;4807;48.024;11.726;2022-07-29T17:52:35;1.50;;;1.10;;
9536;SDS011;4807;48.024;11.726;2022-07-29T17:55:44;1.43;;;1.40;;
9536;SDS011;4807;48.024;11.726;2022-07-29T17:58:54;1.83;;;1.20;;
9536;SDS011;4807;48.024;11.726;2022-07-29T18:02:02;1.27;;;1.17;;
9536;SDS011;4807;48.024;11.726;2022-07-29T18:05:12;1.30;;;1.20;;
9536;SDS011;4807;48.024;11.726;2022-07-29T18:08:21;1.90;;;1.57;;
9536;SDS011;4807;48.024;11.726;2022-07-29T18:11:30;5.50;;;1.37;;
9536;SDS011;4807;48.024;11.726;2022-07-29T18:14:40;4.53;;;1.60;;
9536;SDS011;4807;48.024;11.726;2022-07-29T18:17:49;1.80;;;1.70;;
9536;SDS011;4807;48.024;11.726;2022-07-29T18:21:06;1.90;;;1.80;;
9536;SDS011;4807;48.024;11.726;2022-07-29T18:27:50;2.00;;;1.57;;
9536;SDS011;4807;48.024;11.726;2022-07-29T18:31:10;1.80;;;1.70;;
9536;SDS011;4807;48.024;11.726;2022-07-29T18:34:20;1.60;;;1.50;;
9536;SDS011;4807;48.024;11.726;2022-07-29T18:37:31;1.70;;;1.37;;
9536;SDS011;4807;48.024;11.726;2022-07-29T18:41:01;1.60;;;1.50;;
9536;SDS011;4807;48.024;11.726;2022-07-29T18:44:10;2.67;;;1.87;;
9536;SDS011;4807;48.024;11.726;2022-07-29T18:47:22;1.60;;;1.50;;
9536;SDS011;4807;48.024;11.726;2022-07-29T18:50:37;3.03;;;1.60;;
9536;SDS011;4807;48.024;11.726;2022-07-29T18:53:48;5.23;;;1.90;;
9536;SDS011;4807;48.024;11.726;2022-07-29T18:56:56;3.00;;;1.60;;
9536;SDS011;4807;48.024;11.726;2022-07-29T19:00:05;3.23;;;1.77;;
9536;SDS011;4807;48.024;11.726;2022-07-29T19:03:19;3.33;;;1.80;;
9536;SDS011;4807;48.024;11.726;2022-07-29T19:06:27;1.67;;;1.57;;
9536;SDS011;4807;48.024;11.726;2022-07-29T19:09:38;1.60;;;1.50;;
9536;SDS011;4807;48.024;11.726;2022-07-29T19:12:54;1.77;;;1.60;;
9536;SDS011;4807;48.024;11.726;2022-07-29T19:16:04;2.23;;;1.30;;
9536;SDS011;4807;48.024;11.726;2022-07-29T19:19:16;2.57;;;1.40;;
9536;SDS011;4807;48.024;11.726;2022-07-29T19:22:26;2.67;;;1.20;;
9536;SDS011;4807;48.024;11.726;2022-07-29T19:25:36;2.77;;;1.40;;